createdAt,value
2023-08-09T00:00:08.857Z,100391.16
2023-08-09T00:02:36.833Z,100391.28
2023-08-09T00:05:06.114Z,100400.88
2023-08-09T00:07:35.889Z,100414.88
2023-08-09T00:10:05.624Z,100428.88
2023-08-09T00:12:33.678Z,100435.13
2023-08-09T00:15:01.418Z,100415.06
2023-08-09T00:17:29.297Z,100428.13
2023-08-09T00:19:57.173Z,100418.63
2023-08-09T00:22:25.895Z,100420.28
2023-08-09T00:24:53.713Z,100423.09
2023-08-09T00:27:22.821Z,100426.56
2023-08-09T00:29:50.576Z,100416.19
2023-08-09T00:32:18.618Z,100420.47
2023-08-09T00:34:48.198Z,100428.88
2023-08-09T00:37:16.177Z,100416.56
2023-08-09T00:39:44.142Z,100412.19
2023-08-09T00:42:11.995Z,100401.72
2023-08-09T00:44:41.257Z,100402.34
2023-08-09T00:47:10.795Z,100412.91
2023-08-09T00:49:39.811Z,100437.72
2023-08-09T00:52:07.803Z,100427.09
2023-08-09T00:54:35.706Z,100424.16
2023-08-09T00:57:03.893Z,100418.94
2023-08-09T00:59:31.808Z,100425.66
2023-08-09T01:02:01.053Z,100434.06
2023-08-09T01:04:29.158Z,100432.19
2023-08-09T01:07:01.003Z,100430.22
2023-08-09T01:09:34.332Z,100430.00
2023-08-09T01:12:05.546Z,100423.75
2023-08-09T01:14:33.537Z,100432.97
2023-08-09T01:17:03.590Z,100439.78
2023-08-09T01:19:38.529Z,100426.91
2023-08-09T01:22:09.100Z,100442.22
2023-08-09T01:24:38.405Z,100452.56
2023-08-09T01:27:06.290Z,100460.19
2023-08-09T01:29:34.264Z,100458.63
2023-08-09T01:32:02.128Z,100459.91
2023-08-09T01:34:30.094Z,100453.94
2023-08-09T01:37:01.232Z,100456.16
2023-08-09T01:39:33.872Z,100447.66
2023-08-09T01:42:03.169Z,100446.53
2023-08-09T01:44:31.630Z,100449.56
2023-08-09T01:47:00.444Z,100454.59
2023-08-09T01:49:28.572Z,100441.53
2023-08-09T01:51:57.189Z,100457.13
2023-08-09T01:54:25.383Z,100448.63
2023-08-09T01:56:55.567Z,100453.66
2023-08-09T01:59:25.156Z,100450.97
2023-08-09T02:01:52.920Z,100453.47
2023-08-09T02:04:22.390Z,100464.13
2023-08-09T02:06:50.104Z,100473.09
2023-08-09T02:09:18.315Z,100465.56
2023-08-09T02:11:46.256Z,100473.53
2023-08-09T02:14:14.006Z,100479.78
2023-08-09T02:16:43.153Z,100475.41
2023-08-09T02:19:12.815Z,100475.41
2023-08-09T02:21:41.933Z,100480.44
2023-08-09T02:24:10.382Z,100476.03
2023-08-09T02:26:40.156Z,100475.84
2023-08-09T02:29:08.121Z,100469.31
2023-08-09T02:31:36.331Z,100472.78
2023-08-09T02:34:05.808Z,100465.53
2023-08-09T02:36:37.399Z,100476.00
2023-08-09T02:39:09.410Z,100470.50
2023-08-09T02:41:39.381Z,100483.50
2023-08-09T02:44:07.871Z,100487.31
2023-08-09T02:46:35.888Z,100482.59
2023-08-09T02:49:05.309Z,100491.81
2023-08-09T02:51:35.517Z,100491.25
2023-08-09T02:54:04.135Z,100508.59
2023-08-09T02:56:32.855Z,100506.22
2023-08-09T02:59:02.197Z,100510.75
2023-08-09T03:01:32.408Z,100510.50
2023-08-09T03:04:00.248Z,100513.00
2023-08-09T03:06:29.396Z,100516.56
2023-08-09T03:09:00.094Z,100508.81
2023-08-09T03:11:28.031Z,100511.25
2023-08-09T03:13:55.922Z,100518.22
2023-08-09T03:16:24.159Z,100519.84
2023-08-09T03:18:52.090Z,100521.50
2023-08-09T03:21:20.009Z,100517.84
2023-08-09T03:23:49.188Z,100515.97
2023-08-09T03:26:16.943Z,100526.44
2023-08-09T03:28:45.282Z,100518.78
2023-08-09T03:31:13.088Z,100528.16
2023-08-09T03:33:40.823Z,100531.50
2023-08-09T03:36:08.742Z,100529.63
2023-08-09T03:38:36.511Z,100531.31
2023-08-09T03:41:05.571Z,100533.06
2023-08-09T03:43:33.349Z,100538.41
2023-08-09T03:46:01.616Z,100535.06
2023-08-09T03:48:29.367Z,100547.34
2023-08-09T03:50:57.364Z,100543.25
2023-08-09T03:53:25.128Z,100542.59
2023-08-09T03:55:52.941Z,100555.38
2023-08-09T03:58:22.838Z,100557.97
2023-08-09T04:00:50.644Z,100559.03
2023-08-09T04:03:18.712Z,100563.59
2023-08-09T04:05:46.587Z,100571.53
2023-08-09T04:08:14.366Z,100570.88
2023-08-09T04:10:42.096Z,100576.28
2023-08-09T04:13:09.853Z,100580.84
2023-08-09T04:15:39.011Z,100570.09
2023-08-09T04:18:06.915Z,100588.03
2023-08-09T04:20:34.635Z,100591.50
2023-08-09T04:23:02.446Z,100597.72
2023-08-09T04:25:30.215Z,100590.81
2023-08-09T04:27:58.163Z,100593.44
2023-08-09T04:30:26.101Z,100586.94
2023-08-09T04:32:55.698Z,100573.38
2023-08-09T04:35:24.832Z,100573.50
2023-08-09T04:37:52.720Z,100561.81
2023-08-09T04:40:20.672Z,100587.19
2023-08-09T04:42:51.065Z,100590.09
2023-08-09T04:45:19.079Z,100563.03
2023-08-09T04:47:48.367Z,100603.13
2023-08-09T04:50:17.679Z,100560.31
2023-08-09T04:52:45.714Z,100605.50
2023-08-09T04:55:13.639Z,100593.81
2023-08-09T04:57:41.664Z,100598.22
2023-08-09T05:00:11.276Z,100571.16
2023-08-09T05:02:39.714Z,100602.03
2023-08-09T05:05:08.435Z,100590.66
2023-08-09T05:07:38.718Z,100604.69
2023-08-09T05:10:08.493Z,100620.16
2023-08-09T05:12:37.277Z,100620.72
2023-08-09T05:15:05.800Z,100624.66
2023-08-09T05:17:33.548Z,100625.22
2023-08-09T05:20:01.355Z,100630.06
2023-08-09T05:22:29.147Z,100637.53
2023-08-09T05:24:58.577Z,100639.09
2023-08-09T05:27:26.331Z,100632.09
2023-08-09T05:29:54.118Z,100636.00
2023-08-09T05:32:22.972Z,100630.00
2023-08-09T05:34:50.875Z,100632.34
2023-08-09T05:37:18.664Z,100635.78
2023-08-09T05:39:47.973Z,100635.78
2023-08-09T05:42:17.415Z,100634.88
2023-08-09T05:44:45.656Z,100642.72
2023-08-09T05:47:13.386Z,100644.94
2023-08-09T05:49:41.149Z,100650.19
2023-08-09T05:52:08.915Z,100648.41
2023-08-09T05:54:36.728Z,100650.84
2023-08-09T05:57:05.035Z,100660.25
2023-08-09T05:59:34.164Z,100661.94
2023-08-09T06:02:03.342Z,100668.84
2023-08-09T06:04:31.168Z,100672.78
2023-08-09T06:06:58.928Z,100679.06
2023-08-09T06:09:26.685Z,100682.69
2023-08-09T06:11:54.410Z,100683.81
2023-08-09T06:14:22.134Z,100683.81
2023-08-09T06:16:51.274Z,100686.44
2023-08-09T06:19:19.417Z,100693.34
2023-08-09T06:21:47.274Z,100688.22
2023-08-09T06:24:15.013Z,100694.75
2023-08-09T06:26:42.885Z,100696.88
2023-08-09T06:29:10.713Z,100701.53
2023-08-09T06:31:38.493Z,100702.66
2023-08-09T06:34:07.976Z,100710.56
2023-08-09T06:36:35.718Z,100715.31
2023-08-09T06:39:04.095Z,100721.31
2023-08-09T06:41:31.825Z,100718.31
2023-08-09T06:43:59.530Z,100722.22
2023-08-09T06:46:27.630Z,100719.75
2023-08-09T06:48:55.368Z,100724.94
2023-08-09T06:51:24.533Z,100723.41
2023-08-09T06:53:52.391Z,100721.13
2023-08-09T06:56:20.143Z,100727.63
2023-08-09T06:58:47.845Z,100728.56
2023-08-09T07:01:15.589Z,100736.78
2023-08-09T07:03:43.345Z,100735.03
2023-08-09T07:06:11.104Z,100740.97
2023-08-09T07:08:40.253Z,100755.44
2023-08-09T07:11:07.984Z,100750.41
2023-08-09T07:13:38.303Z,100759.22
2023-08-09T07:16:06.530Z,100759.41
2023-08-09T07:18:34.300Z,100763.81
2023-08-09T07:21:02.007Z,100773.25
2023-08-09T07:23:47.203Z,100772.66
2023-08-09T07:26:18.822Z,100774.22
2023-08-09T07:28:46.562Z,100770.13
2023-08-09T07:31:26.216Z,100775.25
2023-08-09T07:33:54.293Z,100766.66
2023-08-09T07:36:22.073Z,100774.84
2023-08-09T07:38:50.014Z,100783.13
2023-08-09T07:41:19.089Z,100772.66
2023-08-09T07:43:46.872Z,100772.53
2023-08-09T07:46:14.806Z,100776.50
2023-08-09T07:48:42.562Z,100779.75
2023-08-09T07:51:13.224Z,100785.53
2023-08-09T07:53:42.270Z,100791.06
2023-08-09T07:56:11.801Z,100785.69
2023-08-09T07:58:40.979Z,100791.22
2023-08-09T08:01:09.257Z,100798.88
2023-08-09T08:03:37.132Z,100795.28
2023-08-09T08:06:05.280Z,100809.28
2023-08-09T08:08:33.030Z,100811.53
2023-08-09T08:11:01.179Z,100804.44
2023-08-09T08:13:28.978Z,100810.66
2023-08-09T08:16:00.602Z,100813.88
2023-08-09T08:18:28.811Z,100820.38
2023-08-09T08:20:56.839Z,100816.94
2023-08-09T08:23:24.576Z,100819.50
2023-08-09T08:25:52.382Z,100819.28
2023-08-09T08:28:20.080Z,100819.06
2023-08-09T08:30:48.849Z,100816.19
2023-08-09T08:33:18.778Z,100809.06
2023-08-09T08:38:19.210Z,100809.84
2023-08-09T08:40:47.191Z,100808.13
2023-08-09T08:43:14.997Z,100810.41
2023-08-09T08:45:43.167Z,100812.28
2023-08-09T08:48:12.155Z,100813.50
2023-08-09T08:50:43.118Z,100818.28
2023-08-09T08:53:12.222Z,100815.81
2023-08-09T08:55:41.109Z,100815.91
2023-08-09T08:58:10.094Z,100819.84
2023-08-09T09:00:39.792Z,100818.06
2023-08-09T09:03:07.611Z,100834.34
2023-08-09T09:05:37.842Z,100830.63
2023-08-09T09:08:07.964Z,100838.34
2023-08-09T09:10:36.001Z,100840.88
2023-08-09T09:13:03.824Z,100836.56
2023-08-09T09:15:31.656Z,100838.19
2023-08-09T09:18:00.256Z,100831.00
2023-08-09T09:20:31.102Z,100837.75
2023-08-09T09:22:59.648Z,100832.56
2023-08-09T09:25:28.793Z,100836.88
2023-08-09T09:27:58.812Z,100832.97
2023-08-09T09:30:30.688Z,100838.06
2023-08-09T09:33:00.246Z,100839.50
2023-08-09T09:35:29.539Z,100840.94
2023-08-09T09:38:00.206Z,100854.34
2023-08-09T09:40:35.321Z,100847.06
2023-08-09T09:43:05.420Z,100852.72
2023-08-09T09:45:33.878Z,100858.16
2023-08-09T09:48:03.248Z,100856.66
2023-08-09T09:50:32.767Z,100846.78
2023-08-09T09:53:03.584Z,100857.69
2023-08-09T09:55:35.717Z,100860.63
2023-08-09T09:58:03.446Z,100868.03
2023-08-09T10:00:33.408Z,100866.34
2023-08-09T10:03:02.674Z,100874.16
2023-08-09T10:05:36.479Z,100874.56
2023-08-09T10:08:12.475Z,100874.78
2023-08-09T10:10:44.627Z,100872.69
2023-08-09T10:13:16.144Z,100871.09
2023-08-09T10:15:48.439Z,100871.34
2023-08-09T10:18:18.698Z,100872.75
2023-08-09T10:20:48.648Z,100874.16
2023-08-09T10:23:23.612Z,100873.88
2023-08-09T10:25:53.593Z,100873.31
2023-08-09T10:28:21.776Z,100874.59
2023-08-09T10:30:51.483Z,100872.47
2023-08-09T10:33:21.143Z,100859.94
2023-08-09T10:35:52.421Z,100868.84
2023-08-09T10:38:23.401Z,100867.19
2023-08-09T10:40:55.420Z,100872.63
2023-08-09T10:43:24.563Z,100869.41
2023-08-09T10:45:54.807Z,100860.91
2023-08-09T10:48:24.314Z,100863.72
2023-08-09T10:51:19.861Z,100866.22
2023-08-09T10:53:59.687Z,100865.38
2023-08-09T10:56:36.036Z,100869.44
2023-08-09T10:59:08.418Z,100866.91
2023-08-09T11:01:37.118Z,100881.41
2023-08-09T11:04:10.743Z,100871.63
2023-08-09T11:06:39.946Z,100873.19
2023-08-09T11:09:12.288Z,100877.22
2023-08-09T11:11:42.380Z,100873.88
2023-08-09T11:14:10.807Z,100868.59
2023-08-09T11:16:38.853Z,100879.16
2023-08-09T11:19:11.383Z,100881.41
2023-08-09T11:21:49.668Z,100888.09
2023-08-09T11:24:18.477Z,100883.91
2023-08-09T11:26:49.794Z,100879.44
2023-08-09T11:29:18.928Z,100883.81
2023-08-09T11:31:47.826Z,100880.47
2023-08-09T11:34:17.494Z,100883.72
2023-08-09T11:36:46.230Z,100878.53
2023-08-09T11:39:14.891Z,100876.31
2023-08-09T11:41:44.489Z,100882.50
2023-08-09T11:44:16.420Z,100876.81
2023-08-09T11:46:47.064Z,100878.34
2023-08-09T11:49:15.168Z,100884.75
2023-08-09T11:51:42.887Z,100889.78
2023-08-09T11:54:10.981Z,100888.94
2023-08-09T11:56:39.559Z,100898.00
2023-08-09T11:59:10.047Z,100891.59
2023-08-09T12:01:41.296Z,100896.34
2023-08-09T12:04:14.264Z,100904.09
2023-08-09T12:06:45.225Z,100907.06
2023-08-09T12:09:45.346Z,100900.47
2023-08-09T12:12:18.245Z,100900.88
2023-08-09T12:14:47.457Z,100903.47
2023-08-09T12:17:24.428Z,100904.13
2023-08-09T12:19:52.700Z,100900.78
2023-08-09T12:22:20.700Z,100896.81
2023-08-09T12:24:48.927Z,100898.13
2023-08-09T12:27:18.823Z,100905.78
2023-08-09T12:29:46.638Z,100899.78
2023-08-09T12:32:14.598Z,100904.31
2023-08-09T12:34:43.862Z,100903.91
2023-08-09T12:37:12.293Z,100902.34
2023-08-09T12:39:40.072Z,100899.97
2023-08-09T12:42:07.914Z,100906.31
2023-08-09T12:44:35.680Z,100907.03
2023-08-09T12:47:03.539Z,100912.78
2023-08-09T12:49:31.405Z,100911.66
2023-08-09T12:52:00.607Z,100913.22
2023-08-09T12:54:28.645Z,100907.69
2023-08-09T12:56:56.985Z,100911.72
2023-08-09T12:59:24.828Z,100899.81
2023-08-09T13:01:52.617Z,100906.63
2023-08-09T13:04:25.057Z,100899.97
2023-08-09T13:06:53.222Z,100903.63
2023-08-09T13:09:22.603Z,100904.06
2023-08-09T13:11:50.678Z,100900.34
2023-08-09T13:14:18.499Z,100912.22
2023-08-09T13:16:49.016Z,100898.72
2023-08-09T13:19:16.766Z,100903.88
2023-08-09T13:21:44.574Z,100902.75
2023-08-09T13:24:12.401Z,100897.84
2023-08-09T13:26:41.481Z,100899.09
2023-08-09T13:29:09.211Z,100898.88
2023-08-09T13:31:36.997Z,100884.25
2023-08-09T13:34:05.171Z,100893.38
2023-08-09T13:36:32.919Z,100895.66
2023-08-09T13:39:00.667Z,100901.34
2023-08-09T13:41:28.393Z,100903.38
2023-08-09T13:43:57.480Z,100907.31
2023-08-09T13:46:25.220Z,100899.34
2023-08-09T13:48:53.042Z,100898.78
2023-08-09T13:51:20.817Z,100894.75
2023-08-09T13:53:48.553Z,100896.47
2023-08-09T13:56:17.994Z,100903.16
2023-08-09T13:58:45.754Z,100904.56
2023-08-09T14:01:17.981Z,100904.38
2023-08-09T14:03:45.768Z,100914.31
2023-08-09T14:06:13.478Z,100918.50
2023-08-09T14:08:41.226Z,100908.28
2023-08-09T14:11:09.004Z,100906.63
2023-08-09T14:13:36.721Z,100909.03
2023-08-09T14:16:04.761Z,100909.88
2023-08-09T14:18:34.455Z,100909.84
2023-08-09T14:21:02.283Z,100902.66
2023-08-09T14:23:30.529Z,100896.84
2023-08-09T14:25:58.283Z,100896.97
2023-08-09T14:28:26.086Z,100903.41
2023-08-09T14:30:54.025Z,100906.16
2023-08-09T14:33:21.780Z,100903.31
2023-08-09T14:35:50.989Z,100908.00
2023-08-09T14:38:19.137Z,100907.00
2023-08-09T14:40:47.972Z,100899.88
2023-08-09T14:43:18.317Z,100907.25
2023-08-09T14:45:46.415Z,100903.22
2023-08-09T14:48:14.202Z,100907.47
2023-08-09T14:50:44.207Z,100903.97
2023-08-09T14:53:13.747Z,100910.69
2023-08-09T14:55:43.372Z,100902.84
2023-08-09T14:58:11.666Z,100907.88
2023-08-09T15:00:39.591Z,100912.41
2023-08-09T15:03:10.223Z,100916.09
2023-08-09T15:05:38.009Z,100928.81
2023-08-09T15:08:08.506Z,100922.13
2023-08-09T15:10:38.597Z,100914.53
2023-08-09T15:13:09.507Z,100918.38
2023-08-09T15:15:37.301Z,100918.53
2023-08-09T15:18:05.498Z,100915.25
2023-08-09T15:20:33.537Z,100914.69
2023-08-09T15:23:01.303Z,100914.75
2023-08-09T15:25:29.592Z,100922.34
2023-08-09T15:28:01.225Z,100923.06
2023-08-09T15:30:30.099Z,100919.31
2023-08-09T15:32:58.086Z,100913.31
2023-08-09T15:35:26.252Z,100913.44
2023-08-09T15:37:54.025Z,100919.72
2023-08-09T15:40:23.412Z,100917.34
2023-08-09T15:42:51.177Z,100921.25
2023-08-09T15:45:20.377Z,100926.84
2023-08-09T15:47:48.237Z,100926.19
2023-08-09T15:50:16.336Z,100926.63
2023-08-09T15:52:44.055Z,100922.53
2023-08-09T15:55:11.916Z,100929.66
2023-08-09T15:57:39.742Z,100922.97
2023-08-09T16:00:10.611Z,100929.94
2023-08-09T16:02:40.260Z,100920.44
2023-08-09T16:05:08.835Z,100927.56
2023-08-09T16:07:36.591Z,100930.22
2023-08-09T16:10:05.440Z,100936.47
2023-08-09T16:12:34.352Z,100940.25
2023-08-09T16:15:02.095Z,100939.13
2023-08-09T16:17:29.933Z,100936.19
2023-08-09T16:19:59.573Z,100940.38
2023-08-09T16:22:27.626Z,100937.19
2023-08-09T16:24:55.382Z,100940.81
2023-08-09T16:27:25.251Z,100941.34
2023-08-09T16:29:53.087Z,100943.81
2023-08-09T16:32:20.961Z,100944.63
2023-08-09T16:34:48.689Z,100945.88
2023-08-09T16:37:17.802Z,100950.69
2023-08-09T16:39:45.970Z,100948.31
2023-08-09T16:42:14.004Z,100949.16
2023-08-09T16:44:41.743Z,100944.41
2023-08-09T16:47:09.458Z,100946.91
2023-08-09T16:49:37.414Z,100944.84
2023-08-09T16:52:09.243Z,100944.31
2023-08-09T16:54:38.420Z,100950.38
2023-08-09T16:57:06.996Z,100942.16
2023-08-09T16:59:35.306Z,100943.56
2023-08-09T17:02:03.338Z,100951.50
2023-08-09T17:04:31.373Z,100955.97
2023-08-09T17:06:59.203Z,100956.34
2023-08-09T17:09:26.958Z,100962.47
2023-08-09T17:11:56.059Z,100956.28
2023-08-09T17:14:23.847Z,100962.41
2023-08-09T17:16:52.746Z,100968.75
2023-08-09T17:19:24.239Z,100964.88
2023-08-09T17:21:52.033Z,100973.56
2023-08-09T17:24:19.837Z,100967.13
2023-08-09T17:26:47.618Z,100972.03
2023-08-09T17:29:17.135Z,100971.84
2023-08-09T17:31:46.212Z,100977.19
2023-08-09T17:34:14.530Z,100969.88
2023-08-09T17:36:42.490Z,100973.97
2023-08-09T17:39:10.559Z,100983.97
2023-08-09T17:41:38.314Z,100977.28
2023-08-09T17:44:07.137Z,100979.84
2023-08-09T17:46:36.909Z,100985.47
2023-08-09T17:49:05.727Z,100993.06
2023-08-09T17:51:33.561Z,100998.94
2023-08-09T17:54:01.553Z,100998.75
2023-08-09T17:56:30.454Z,100999.59
2023-08-09T17:58:58.217Z,101004.03
2023-08-09T18:01:26.087Z,101003.56
2023-08-09T18:03:55.332Z,101011.13
2023-08-09T18:06:24.844Z,101010.06
2023-08-09T18:08:52.741Z,101017.63
2023-08-09T18:11:21.453Z,101004.31
2023-08-09T18:13:52.093Z,101021.56
2023-08-09T18:16:19.927Z,101021.81
2023-08-09T18:18:48.992Z,101026.72
2023-08-09T18:21:18.127Z,101031.63
2023-08-09T18:23:45.912Z,101040.72
2023-08-09T18:26:13.688Z,101039.50
2023-08-09T18:28:41.591Z,101034.72
2023-08-09T18:31:09.356Z,101046.69
2023-08-09T18:33:37.122Z,101041.97
2023-08-09T18:36:05.194Z,101043.28
2023-08-09T18:38:35.278Z,101047.56
2023-08-09T18:41:03.972Z,101048.97
2023-08-09T18:43:31.856Z,101050.38
2023-08-09T18:46:00.032Z,101058.22
2023-08-09T18:48:28.001Z,101069.03
2023-08-09T18:50:55.996Z,101067.03
2023-08-09T18:53:23.778Z,101063.38
2023-08-09T18:55:52.942Z,101074.56
2023-08-09T18:58:22.111Z,101075.00
2023-08-09T19:00:50.491Z,101073.03
2023-08-09T19:03:18.643Z,101075.50
2023-08-09T19:05:47.566Z,101089.69
2023-08-09T19:08:15.436Z,101084.13
2023-08-09T19:10:43.206Z,101078.69
2023-08-09T19:13:12.634Z,101088.91
2023-08-09T19:15:40.692Z,101093.44
2023-08-09T19:18:08.676Z,101100.06
2023-08-09T19:20:36.527Z,101103.31
2023-08-09T19:23:05.504Z,101109.19
2023-08-09T19:25:33.650Z,101112.34
2023-08-09T19:28:01.652Z,101097.47
2023-08-09T19:30:30.811Z,101113.78
2023-08-09T19:32:58.724Z,101112.75
2023-08-09T19:35:26.615Z,101122.41
2023-08-09T19:37:56.394Z,101120.50
2023-08-09T19:40:26.039Z,101119.00
2023-08-09T19:42:53.882Z,101123.00
2023-08-09T19:45:22.565Z,101135.38
2023-08-09T19:47:54.800Z,101135.78
2023-08-09T19:50:22.951Z,101126.97
2023-08-09T19:52:50.775Z,101136.53
2023-08-09T19:55:20.368Z,101135.97
2023-08-09T19:57:48.137Z,101142.56
2023-08-09T20:00:19.124Z,101146.53
2023-08-09T20:02:49.655Z,101152.81
2023-08-09T20:05:18.890Z,101150.47
2023-08-09T20:07:47.459Z,101157.81
2023-08-09T20:10:15.297Z,101154.66
2023-08-09T20:12:43.054Z,101142.19
2023-08-09T20:15:12.573Z,101161.09
2023-08-09T20:17:40.438Z,101154.56
2023-08-09T20:20:10.780Z,101156.63
2023-08-09T20:22:40.533Z,101168.34
2023-08-09T20:25:08.897Z,101158.22
2023-08-09T20:27:36.898Z,101155.91
2023-08-09T20:30:06.070Z,101169.28
2023-08-09T20:32:34.218Z,101156.97
2023-08-09T20:35:02.355Z,101167.66
2023-08-09T20:37:30.136Z,101171.59
2023-08-09T20:39:59.245Z,101160.81
2023-08-09T20:42:27.713Z,101167.06
2023-08-09T20:44:55.473Z,101170.81
2023-08-09T20:47:23.567Z,101165.75
2023-08-09T20:49:51.389Z,101166.97
2023-08-09T20:52:19.163Z,101177.63
2023-08-09T20:54:46.883Z,101173.75
2023-08-09T20:57:16.132Z,101182.25
2023-08-09T20:59:43.996Z,101178.41
2023-08-09T21:02:12.018Z,101183.47
2023-08-09T21:04:39.797Z,101181.47
2023-08-09T21:07:07.623Z,101185.28
2023-08-09T21:09:35.856Z,101200.38
2023-08-09T21:12:04.317Z,101187.03
2023-08-09T21:14:38.494Z,101199.03
2023-08-09T21:17:06.500Z,101206.31
2023-08-09T21:19:35.350Z,101209.09
2023-08-09T21:22:04.021Z,101209.50
2023-08-09T21:24:31.966Z,101205.44
2023-08-09T21:26:59.712Z,101197.94
2023-08-09T21:29:32.098Z,101199.88
2023-08-09T21:32:01.593Z,101203.91
2023-08-09T21:34:29.355Z,101204.91
2023-08-09T21:36:57.234Z,101202.56
2023-08-09T21:39:25.144Z,101198.06
2023-08-09T21:41:52.913Z,101211.81
2023-08-09T21:44:21.063Z,101211.31
2023-08-09T21:46:48.861Z,101208.25
2023-08-09T21:49:18.016Z,101206.88
2023-08-09T21:51:48.373Z,101208.97
2023-08-09T21:54:16.402Z,101207.50
2023-08-09T21:56:44.176Z,101205.19
2023-08-09T21:59:11.916Z,101204.56
2023-08-09T22:01:40.233Z,101211.75
2023-08-09T22:04:08.181Z,101204.28
2023-08-09T22:06:37.423Z,101193.53
2023-08-09T22:09:06.304Z,101207.22
2023-08-09T22:11:34.207Z,101200.75
2023-08-09T22:14:02.077Z,101201.84
2023-08-09T22:16:29.912Z,101210.44
2023-08-09T22:18:57.696Z,101212.28
2023-08-09T22:21:25.515Z,101219.50
2023-08-09T22:23:55.646Z,101208.28
2023-08-09T22:26:23.602Z,101207.66
2023-08-09T22:28:51.365Z,101211.19
2023-08-09T22:31:19.157Z,101216.84
2023-08-09T22:33:47.053Z,101225.31
2023-08-09T22:36:14.988Z,101241.06
2023-08-09T22:38:42.819Z,101250.59
2023-08-09T22:41:12.092Z,101198.84
2023-08-09T22:43:39.906Z,101210.66
2023-08-09T22:46:07.880Z,101220.00
2023-08-09T22:48:35.786Z,101250.13
2023-08-09T22:51:05.367Z,101242.06
2023-08-09T22:53:33.174Z,101194.50
2023-08-09T22:56:01.054Z,101242.06
2023-08-09T22:58:30.485Z,101224.38
2023-08-09T23:01:01.258Z,101189.78
2023-08-09T23:03:29.283Z,101236.13
2023-08-09T23:05:57.176Z,101239.53
2023-08-09T23:08:25.486Z,101209.59
2023-08-09T23:10:55.099Z,101194.06
2023-08-09T23:13:22.917Z,101244.00
2023-08-09T23:15:54.871Z,101246.41
2023-08-09T23:18:22.935Z,101253.16
2023-08-09T23:20:51.704Z,101249.47
2023-08-09T23:23:19.473Z,101251.84
2023-08-09T23:25:47.381Z,101259.44
2023-08-09T23:28:15.394Z,101249.72
2023-08-09T23:30:43.145Z,101259.00
2023-08-09T23:33:14.505Z,101259.69
2023-08-09T23:35:42.322Z,101263.91
2023-08-09T23:38:11.785Z,101259.47
2023-08-09T23:40:40.090Z,101261.09
2023-08-09T23:43:07.873Z,101260.06
2023-08-09T23:45:35.676Z,101262.56
2023-08-09T23:48:04.127Z,101256.53
2023-08-09T23:50:33.519Z,101252.84
2023-08-09T23:53:01.298Z,101259.09
2023-08-09T23:55:29.138Z,101255.47
2023-08-09T23:57:59.390Z,101260.53
